Time;durP1;ratioP1;P1;durP2;ratioP2;P2;SDS_P1;SDS_P2;PMS_P1;PMS_P2;Temp;Humidity;BMP_temperature;BMP_pressure;BME280_temperature;BME280_humidity;BME280_pressure;Samples;Min_cycle;Max_cycle;Signal;HPM_P1;HPM_P2
2020/12/04 00:00:38;;;;;;;15.52;10.98;;;;;;;;;;5014666;28;20034;-56
2020/12/04 00:03:17;;;;;;;14.27;11.00;;;;;;;;;;5015494;28;20037;-55
2020/12/04 00:06:03;;;;;;;16.33;11.40;;;;;;;;;;5014892;28;20080;-56
2020/12/04 00:08:50;;;;;;;12.87;9.50;;;;;;;;;;5014577;28;20048;-57
2020/12/04 00:11:46;;;;;;;13.90;10.17;;;;;;;;;;5057028;28;20107;-56
2020/12/04 00:14:36;;;;;;;14.77;11.13;;;;;;;;;;5075839;28;20486;-55
2020/12/04 00:17:16;;;;;;;11.07;9.30;;;;;;;;;;5076635;28;20462;-55
2020/12/04 00:23:03;;;;;;;;;;;;;;;;;;;;;
2020/12/04 00:25:59;;;;;;;13.93;9.40;;;;;;;;;;5076106;28;20422;-55
2020/12/04 00:28:47;;;;;;;;;;;;;;;;;;;;;
2020/12/04 00:31:36;;;;;;;14.17;10.20;;;;;;;;;;5075255;28;20088;-55
2020/12/04 00:34:27;;;;;;;14.40;10.40;;;;;;;;;;5075219;28;20078;-56
2020/12/04 00:37:20;;;;;;;;;;;;;;;;;;;;;
2020/12/04 00:43:07;;;;;;;15.53;11.37;;;;;;;;;;5076142;28;20148;-55
2020/12/04 00:46:09;;;;;;;12.57;9.57;;;;;;;;;;5070590;28;20028;-57
2020/12/04 00:49:22;;;;;;;;;;;;;;;;;;;;;
2020/12/04 00:54:42;;;;;;;15.57;9.77;;;;;;;;;;5064618;28;20040;-57
2020/12/04 01:00:31;;;;;;;13.97;10.20;;;;;;;;;;5075839;28;20082;-56
2020/12/04 01:03:33;;;;;;;21.10;11.83;;;;;;;;;;5073471;28;20456;-55
2020/12/04 01:06:28;;;;;;;14.80;10.60;;;;;;;;;;5057233;28;20123;-55
2020/12/04 01:09:40;;;;;;;17.07;11.40;;;;;;;;;;5076687;28;20025;-57
2020/12/04 01:15:08;;;;;;;12.67;11.20;;;;;;;;;;4994499;28;20420;-55
2020/12/04 01:17:40;;;;;;;14.23;10.43;;;;;;;;;;4994213;28;20030;-55
2020/12/04 01:20:16;;;;;;;;;;;;;;;;;;;;;
2020/12/04 01:23:18;;;;;;;14.60;10.23;;;;;;;;;;5067937;28;20123;-57
2020/12/04 01:25:58;;;;;;;17.57;10.63;;;;;;;;;;5077788;28;20031;-56
2020/12/04 01:28:52;;;;;;;18.33;11.43;;;;;;;;;;5076822;28;20374;-56
2020/12/04 01:31:49;;;;;;;16.97;12.93;;;;;;;;;;5075290;28;20143;-56
2020/12/04 01:34:38;;;;;;;14.97;11.23;;;;;;;;;;5074472;28;20037;-56
2020/12/04 01:37:16;;;;;;;17.13;12.57;;;;;;;;;;5074866;28;20365;-57
2020/12/04 01:39:55;;;;;;;17.97;12.37;;;;;;;;;;5074922;28;20115;-56
2020/12/04 01:42:53;;;;;;;15.33;10.83;;;;;;;;;;5071901;28;20120;-57
2020/12/04 01:48:44;;;;;;;17.27;10.93;;;;;;;;;;5075618;28;20044;-56
2020/12/04 01:51:18;;;;;;;14.73;11.23;;;;;;;;;;4976052;28;20068;-55
2020/12/04 01:54:14;;;;;;;18.40;11.90;;;;;;;;;;5060055;28;20048;-57
2020/12/04 02:05:43;;;;;;;;;;;;;;;;;;;;;
2020/12/04 02:08:38;;;;;;;15.00;12.90;;;;;;;;;;5072843;28;20032;-56
2020/12/04 02:14:55;;;;;;;;;;;;;;;;;;;;;
2020/12/04 02:20:43;;;;;;;;;;;;;;;;;;4982457;28;20042;-57
2020/12/04 02:23:17;;;;;;;13.17;9.80;;;;;;;;;;5044909;28;20007;-56
2020/12/04 02:29:11;;;;;;;15.77;11.73;;;;;;;;;;5011913;28;20058;-57
2020/12/04 02:34:42;;;;;;;;;;;;;;;;;;;;;
2020/12/04 02:37:23;;;;;;;18.63;11.27;;;;;;;;;;5074192;28;20033;-54
2020/12/04 02:40:04;;;;;;;18.37;12.03;;;;;;;;;;5074482;28;20036;-57
2020/12/04 02:42:44;;;;;;;15.32;13.00;;;;;;;;;;5073798;28;20409;-57
2020/12/04 02:45:36;;;;;;;12.23;10.18;;;;;;;;;;5073023;28;20052;-56
2020/12/04 02:48:15;;;;;;;13.50;10.20;;;;;;;;;;5073727;28;20086;-57
2020/12/04 02:51:05;;;;;;;17.00;12.13;;;;;;;;;;5074233;28;20024;-57
2020/12/04 02:53:58;;;;;;;14.60;11.83;;;;;;;;;;5073905;28;20041;-57
2020/12/04 02:57:02;;;;;;;17.60;11.70;;;;;;;;;;5076765;28;20120;-55
2020/12/04 02:59:50;;;;;;;13.80;10.33;;;;;;;;;;5058972;28;20025;-54
2020/12/04 03:02:31;;;;;;;14.23;9.53;;;;;;;;;;5077751;28;20025;-55
2020/12/04 03:05:19;;;;;;;14.23;10.70;;;;;;;;;;5044156;28;20082;-57
2020/12/04 03:08:14;;;;;;;16.93;11.80;;;;;;;;;;4995701;28;20039;-57
2020/12/04 03:10:43;;;;;;;13.03;10.60;;;;;;;;;;5078567;28;20040;-53
2020/12/04 03:16:18;;;;;;;17.27;12.33;;;;;;;;;;5077578;28;20043;-54
2020/12/04 03:19:07;;;;;;;12.50;11.13;;;;;;;;;;5074813;28;20474;-57
2020/12/04 03:22:01;;;;;;;14.27;10.63;;;;;;;;;;5065292;28;20044;-56
2020/12/04 03:24:51;;;;;;;13.77;11.17;;;;;;;;;;5078202;28;20029;-57
2020/12/04 03:27:40;;;;;;;16.50;10.90;;;;;;;;;;5069865;28;20421;-56
2020/12/04 03:30:17;;;;;;;15.63;10.70;;;;;;;;;;5023226;28;20498;-56
2020/12/04 03:33:10;;;;;;;24.33;12.10;;;;;;;;;;5077736;28;20069;-56
2020/12/04 03:35:59;;;;;;;16.23;12.53;;;;;;;;;;5078042;28;20029;-55
2020/12/04 03:38:32;;;;;;;15.93;10.63;;;;;;;;;;5064921;28;20033;-55
2020/12/04 03:41:35;;;;;;;11.33;10.00;;;;;;;;;;5074199;28;20409;-57
2020/12/04 03:44:10;;;;;;;17.60;13.10;;;;;;;;;;5076890;28;20045;-56
2020/12/04 03:47:08;;;;;;;16.10;11.13;;;;;;;;;;5077928;28;20454;-56
2020/12/04 03:49:38;;;;;;;18.53;12.27;;;;;;;;;;5071441;28;20047;-57
2020/12/04 03:52:11;;;;;;;23.50;13.82;;;;;;;;;;5077129;28;20037;-55
2020/12/04 03:54:46;;;;;;;17.10;13.53;;;;;;;;;;5075732;28;20545;-57
2020/12/04 04:00:26;;;;;;;14.90;11.53;;;;;;;;;;5053372;28;20462;-56
2020/12/04 04:03:07;;;;;;;16.30;12.33;;;;;;;;;;5077627;28;20063;-57
2020/12/04 04:06:15;;;;;;;16.27;11.67;;;;;;;;;;5075438;28;20028;-56
2020/12/04 04:08:58;;;;;;;20.20;14.53;;;;;;;;;;5076208;28;20027;-56
2020/12/04 04:14:43;;;;;;;13.67;11.50;;;;;;;;;;5014564;28;20068;-56
2020/12/04 04:17:18;;;;;;;;;;;;;;;;;;5055386;28;20514;-56
2020/12/04 04:23:25;;;;;;;;;;;;;;;;;;;;;
2020/12/04 04:25:54;;;;;;;;;;;;;;;;;;5039464;28;20573;-56
2020/12/04 04:28:40;;;;;;;13.13;10.17;;;;;;;;;;5053668;28;19950;-57
2020/12/04 04:31:07;;;;;;;11.63;9.23;;;;;;;;;;5053740;28;20538;-56
2020/12/04 04:33:36;;;;;;;14.93;10.60;;;;;;;;;;5016753;28;20036;-57
2020/12/04 04:36:15;;;;;;;10.97;9.83;;;;;;;;;;5052406;28;20151;-54
2020/12/04 04:39:08;;;;;;;;;;;;;;;;;;;;;
2020/12/04 04:41:44;;;;;;;11.37;9.87;;;;;;;;;;5050411;28;20052;-57
2020/12/04 04:44:26;;;;;;;14.63;11.50;;;;;;;;;;5052608;28;20384;-55
2020/12/04 04:47:15;;;;;;;10.60;9.47;;;;;;;;;;5053055;28;20437;-56
2020/12/04 04:50:11;;;;;;;12.93;9.93;;;;;;;;;;5075524;28;20020;-56
2020/12/04 04:52:56;;;;;;;14.17;10.73;;;;;;;;;;5053932;28;20036;-55
2020/12/04 04:58:31;;;;;;;12.77;8.73;;;;;;;;;;5020359;28;20046;-53
2020/12/04 05:01:05;;;;;;;15.00;10.63;;;;;;;;;;5056625;28;20509;-56
2020/12/04 05:03:47;;;;;;;13.23;10.57;;;;;;;;;;5075276;28;20111;-55
2020/12/04 05:06:13;;;;;;;13.80;9.43;;;;;;;;;;5073664;28;20123;-56
2020/12/04 05:08:52;;;;;;;14.67;9.97;;;;;;;;;;5073915;28;20037;-56
2020/12/04 05:11:44;;;;;;;13.87;10.73;;;;;;;;;;5075890;28;20032;-56
2020/12/04 05:14:51;;;;;;;15.13;10.67;;;;;;;;;;5046747;28;20046;-58
2020/12/04 05:20:20;;;;;;;11.20;9.70;;;;;;;;;;5050449;28;20417;-56
2020/12/04 05:22:56;;;;;;;11.67;9.20;;;;;;;;;;5055938;28;20067;-56
2020/12/04 05:25:44;;;;;;;12.27;9.73;;;;;;;;;;5057678;28;20032;-55
2020/12/04 05:28:36;;;;;;;13.47;10.40;;;;;;;;;;5055669;28;20056;-56
2020/12/04 05:31:05;;;;;;;12.57;9.20;;;;;;;;;;5072833;28;20025;-57
2020/12/04 05:36:31;;;;;;;15.13;10.30;;;;;;;;;;5036081;28;20024;-55
2020/12/04 05:39:07;;;;;;;11.83;8.53;;;;;;;;;;5072797;28;20039;-55
2020/12/04 05:42:01;;;;;;;13.30;9.70;;;;;;;;;;5074656;28;20025;-56
2020/12/04 05:44:39;;;;;;;14.77;11.00;;;;;;;;;;5074769;28;20457;-54
2020/12/04 05:47:19;;;;;;;12.30;8.33;;;;;;;;;;5074780;28;20025;-54
2020/12/04 05:49:48;;;;;;;12.65;8.85;;;;;;;;;;5040785;28;20048;-55
2020/12/04 05:52:31;;;;;;;;;;;;;;;;;;;;;
2020/12/04 05:55:27;;;;;;;15.67;9.53;;;;;;;;;;5074340;28;20059;-54
2020/12/04 06:01:24;;;;;;;15.18;10.02;;;;;;;;;;5073876;28;20052;-51
2020/12/04 06:08:03;;;;;;;14.10;10.47;;;;;;;;;;4993229;28;20432;-54
2020/12/04 06:11:03;;;;;;;;;;;;;;;;;;;;;
2020/12/04 06:14:11;;;;;;;10.57;8.82;;;;;;;;;;5056235;28;20037;-55
2020/12/04 06:20:30;;;;;;;14.40;10.83;;;;;;;;;;5060174;28;20039;-55
2020/12/04 06:23:33;;;;;;;11.67;9.50;;;;;;;;;;5073630;28;20048;-54
2020/12/04 06:26:29;;;;;;;15.27;10.03;;;;;;;;;;5074770;28;20497;-55
2020/12/04 06:32:35;;;;;;;13.37;9.57;;;;;;;;;;5039851;28;20032;-54
2020/12/04 06:35:43;;;;;;;;;;;;;;;;;;;;;
2020/12/04 06:38:43;;;;;;;12.20;9.33;;;;;;;;;;5073415;28;20472;-53
2020/12/04 06:41:41;;;;;;;14.02;10.15;;;;;;;;;;5073966;28;20032;-56
2020/12/04 06:44:20;;;;;;;17.07;9.97;;;;;;;;;;5071986;28;20040;-55
2020/12/04 06:47:15;;;;;;;14.53;10.40;;;;;;;;;;5073079;28;20402;-56
2020/12/04 06:49:58;;;;;;;12.93;9.57;;;;;;;;;;5073861;28;20031;-55
2020/12/04 06:52:51;;;;;;;12.33;9.50;;;;;;;;;;5055112;28;20052;-52
2020/12/04 06:56:05;;;;;;;15.77;9.37;;;;;;;;;;5073368;28;20025;-54
2020/12/04 06:58:31;;;;;;;19.53;9.90;;;;;;;;;;5065435;28;20115;-54
2020/12/04 07:01:03;;;;;;;14.20;10.80;;;;;;;;;;5056074;28;20116;-54
2020/12/04 07:03:45;;;;;;;15.07;11.07;;;;;;;;;;5055257;28;20040;-56
2020/12/04 07:06:39;;;;;;;13.83;11.13;;;;;;;;;;5055381;28;20064;-55
2020/12/04 07:09:18;;;;;;;13.37;9.87;;;;;;;;;;5070827;28;20058;-55
2020/12/04 07:12:00;;;;;;;15.03;10.33;;;;;;;;;;5053786;28;20454;-55
2020/12/04 07:14:46;;;;;;;12.77;9.40;;;;;;;;;;5074259;28;20040;-52
2020/12/04 07:17:43;;;;;;;15.77;11.47;;;;;;;;;;5056111;28;20047;-54
2020/12/04 07:23:50;;;;;;;17.03;10.00;;;;;;;;;;5065406;28;20033;-55
2020/12/04 07:30:04;;;;;;;14.93;11.20;;;;;;;;;;5070626;28;20082;-56
2020/12/04 07:32:55;;;;;;;12.03;8.43;;;;;;;;;;5061616;28;20520;-57
2020/12/04 07:38:51;;;;;;;14.43;10.60;;;;;;;;;;5073851;28;20071;-53
2020/12/04 07:41:54;;;;;;;12.00;10.55;;;;;;;;;;5074663;28;20035;-54
2020/12/04 07:44:42;;;;;;;18.00;10.57;;;;;;;;;;5076725;28;20040;-55
2020/12/04 07:47:25;;;;;;;;;;;;;;;;;;;;;
2020/12/04 07:53:19;;;;;;;13.67;11.33;;;;;;;;;;5051659;28;20036;-53
2020/12/04 07:56:10;;;;;;;18.80;13.23;;;;;;;;;;5055488;28;20037;-54
2020/12/04 07:59:02;;;;;;;20.92;14.93;;;;;;;;;;5038751;28;20510;-55
2020/12/04 08:01:46;;;;;;;14.40;10.93;;;;;;;;;;5054095;28;20048;-53
2020/12/04 08:04:17;;;;;;;19.00;13.50;;;;;;;;;;5054257;28;20406;-52
2020/12/04 08:10:02;;;;;;;16.73;12.37;;;;;;;;;;5053550;28;20044;-56
2020/12/04 08:12:38;;;;;;;15.67;11.27;;;;;;;;;;5065834;28;20127;-56
2020/12/04 08:15:14;;;;;;;14.47;11.57;;;;;;;;;;5077096;28;20083;-53
2020/12/04 08:21:21;;;;;;;17.05;12.07;;;;;;;;;;5075667;28;20377;-55
2020/12/04 08:24:39;;;;;;;18.17;10.43;;;;;;;;;;5076057;28;20520;-57
2020/12/04 08:27:26;;;;;;;12.83;11.17;;;;;;;;;;4993666;28;20027;-52
2020/12/04 08:36:18;;;;;;;15.67;11.73;;;;;;;;;;5075612;28;20063;-57
2020/12/04 08:39:05;;;;;;;15.20;10.63;;;;;;;;;;5073493;28;20059;-56
2020/12/04 08:42:08;;;;;;;13.50;9.77;;;;;;;;;;5074415;28;20478;-57
2020/12/04 08:44:57;;;;;;;13.57;9.97;;;;;;;;;;5075284;28;20462;-58
2020/12/04 08:47:47;;;;;;;14.37;11.00;;;;;;;;;;5057885;28;20407;-57
2020/12/04 08:53:45;;;;;;;13.27;10.30;;;;;;;;;;5072586;28;20043;-56
2020/12/04 08:56:41;;;;;;;12.60;9.37;;;;;;;;;;5046885;28;20040;-58
2020/12/04 08:59:23;;;;;;;12.87;9.33;;;;;;;;;;5076479;28;20458;-57
2020/12/04 09:01:59;;;;;;;14.00;9.60;;;;;;;;;;5076238;28;20103;-56
2020/12/04 09:04:42;;;;;;;14.10;10.17;;;;;;;;;;5075440;28;20024;-58
2020/12/04 09:07:37;;;;;;;13.10;9.90;;;;;;;;;;5076552;28;20047;-55
2020/12/04 09:10:20;;;;;;;14.53;9.27;;;;;;;;;;5051808;28;20505;-57
2020/12/04 09:13:04;;;;;;;12.17;9.17;;;;;;;;;;5057407;28;20048;-56
2020/12/04 09:16:09;;;;;;;15.17;13.37;;;;;;;;;;5058059;28;20040;-58
2020/12/04 09:19:01;;;;;;;15.50;11.17;;;;;;;;;;5073905;28;20021;-56
2020/12/04 09:21:57;;;;;;;;;;;;;;;;;;;;;
2020/12/04 09:24:47;;;;;;;;;;;;;;;;;;;;;
2020/12/04 09:27:30;;;;;;;14.93;12.20;;;;;;;;;;5074986;28;20027;-56
2020/12/04 09:30:03;;;;;;;13.80;10.63;;;;;;;;;;5075929;28;20020;-54
2020/12/04 09:33:00;;;;;;;;;;;;;;;;;;;;;
2020/12/04 09:38:27;;;;;;;17.00;11.87;;;;;;;;;;5075640;28;20035;-58
2020/12/04 09:41:37;;;;;;;15.73;11.87;;;;;;;;;;5075418;28;20082;-57
2020/12/04 09:44:29;;;;;;;14.37;9.87;;;;;;;;;;5065397;28;20500;-58
2020/12/04 09:47:22;;;;;;;12.73;10.57;;;;;;;;;;5056271;28;20118;-58
2020/12/04 09:50:25;;;;;;;;;;;;;;;;;;;;;
2020/12/04 09:52:57;;;;;;;14.00;10.63;;;;;;;;;;4991471;28;20038;-58
2020/12/04 09:55:52;;;;;;;13.97;10.57;;;;;;;;;;4994012;28;20066;-58
2020/12/04 09:58:43;;;;;;;14.00;10.03;;;;;;;;;;4974428;28;20134;-58
2020/12/04 10:01:24;;;;;;;13.20;9.67;;;;;;;;;;4992975;28;20048;-58
2020/12/04 10:06:47;;;;;;;13.63;9.43;;;;;;;;;;5007821;28;20028;-58
2020/12/04 10:09:34;;;;;;;13.33;10.00;;;;;;;;;;5074542;28;20024;-57
2020/12/04 10:12:42;;;;;;;12.83;8.57;;;;;;;;;;5074197;28;20111;-58
2020/12/04 10:15:55;;;;;;;17.43;10.17;;;;;;;;;;5073567;28;20387;-55
2020/12/04 10:22:01;;;;;;;17.23;10.53;;;;;;;;;;5032338;28;20177;-56
2020/12/04 10:24:58;;;;;;;10.77;9.63;;;;;;;;;;5071814;28;20059;-57
2020/12/04 10:27:45;;;;;;;22.27;12.70;;;;;;;;;;5073808;28;20023;-57
2020/12/04 10:30:23;;;;;;;16.47;11.60;;;;;;;;;;5055608;28;20480;-58
2020/12/04 10:36:17;;;;;;;24.20;15.87;;;;;;;;;;5132072;27;20402;-55
2020/12/04 10:42:03;;;;;;;21.23;15.50;;;;;;;;;;5132646;28;20031;-58
2020/12/04 10:44:38;;;;;;;20.38;11.60;;;;;;;;;;5069638;28;20040;-57
2020/12/04 10:47:25;;;;;;;17.27;13.43;;;;;;;;;;5048549;28;20021;-56
2020/12/04 10:50:23;;;;;;;15.63;13.33;;;;;;;;;;5068801;28;20029;-56
2020/12/04 10:56:02;;;;;;;16.63;10.63;;;;;;;;;;5060175;28;20128;-57
2020/12/04 11:07:47;;;;;;;13.87;9.13;;;;;;;;;;5028584;28;20073;-58
2020/12/04 11:10:25;;;;;;;11.30;9.02;;;;;;;;;;5119982;28;20042;-58
2020/12/04 11:12:54;;;;;;;10.77;9.27;;;;;;;;;;5132441;28;20116;-57
2020/12/04 11:16:01;;;;;;;11.67;8.83;;;;;;;;;;5113286;28;20036;-57
2020/12/04 11:18:44;;;;;;;;;;;;;;;;;;;;;
2020/12/04 11:21:19;;;;;;;12.53;9.37;;;;;;;;;;5041952;28;20117;-58
2020/12/04 11:23:58;;;;;;;12.13;9.80;;;;;;;;;;5131941;28;20469;-56
2020/12/04 11:26:44;;;;;;;15.13;8.67;;;;;;;;;;5132039;27;20065;-57
2020/12/04 11:32:29;;;;;;;15.17;10.00;;;;;;;;;;5117734;28;20049;-58
2020/12/04 11:35:28;;;;;;;11.17;8.50;;;;;;;;;;5113503;28;20055;-58
2020/12/04 11:38:26;;;;;;;15.23;9.87;;;;;;;;;;5112811;28;20118;-56
2020/12/04 11:40:59;;;;;;;11.43;7.73;;;;;;;;;;5132392;28;20035;-58
2020/12/04 11:43:55;;;;;;;;;;;;;;;;;;;;;
2020/12/04 11:46:31;;;;;;;;;;;;;;;;;;;;;
2020/12/04 11:52:20;;;;;;;13.13;9.00;;;;;;;;;;5117776;28;20027;-58
2020/12/04 11:55:08;;;;;;;15.10;9.50;;;;;;;;;;5117459;28;20031;-58
2020/12/04 11:57:42;;;;;;;10.97;8.67;;;;;;;;;;5099050;28;20032;-57
2020/12/04 12:00:49;;;;;;;10.63;9.10;;;;;;;;;;5098675;28;20461;-57
2020/12/04 12:03:23;;;;;;;12.67;9.87;;;;;;;;;;5117593;28;20549;-58
2020/12/04 12:05:52;;;;;;;10.57;8.77;;;;;;;;;;5117418;28;20106;-57
2020/12/04 12:08:35;;;;;;;;;;;;;;;;;;;;;
2020/12/04 12:11:15;;;;;;;;;;;;;;;;;;;;;
2020/12/04 12:13:44;;;;;;;15.53;10.70;;;;;;;;;;5114364;28;20111;-57
2020/12/04 12:16:37;;;;;;;15.90;10.07;;;;;;;;;;5117242;28;20055;-58
2020/12/04 12:19:41;;;;;;;12.40;9.80;;;;;;;;;;5104078;28;20042;-58
2020/12/04 12:22:18;;;;;;;12.43;9.20;;;;;;;;;;4993985;28;20081;-57
2020/12/04 12:28:10;;;;;;;13.87;10.17;;;;;;;;;;5033814;28;20029;-56
2020/12/04 12:30:45;;;;;;;12.00;9.53;;;;;;;;;;4997887;28;20034;-58
2020/12/04 12:33:34;;;;;;;11.67;8.40;;;;;;;;;;5066975;28;20116;-58
2020/12/04 12:39:34;;;;;;;10.23;8.47;;;;;;;;;;5073202;28;20029;-58
2020/12/04 12:42:14;;;;;;;11.67;8.93;;;;;;;;;;5073838;28;20036;-58
2020/12/04 12:45:09;;;;;;;10.30;8.00;;;;;;;;;;5056230;28;20039;-58
2020/12/04 12:47:48;;;;;;;13.53;8.43;;;;;;;;;;5006506;28;20041;-58
2020/12/04 12:50:45;;;;;;;;;;;;;;;;;;;;;
2020/12/04 12:56:21;;;;;;;12.17;9.03;;;;;;;;;;5059967;28;20033;-58
2020/12/04 12:58:52;;;;;;;7.90;6.40;;;;;;;;;;5114595;28;20031;-57
2020/12/04 13:01:47;;;;;;;9.37;7.87;;;;;;;;;;5115870;28;20028;-58
2020/12/04 13:04:45;;;;;;;13.13;9.20;;;;;;;;;;5106082;28;20054;-58
2020/12/04 13:10:39;;;;;;;13.50;10.13;;;;;;;;;;5112667;28;20031;-57
2020/12/04 13:13:32;;;;;;;10.47;8.97;;;;;;;;;;5115970;28;20023;-57
2020/12/04 13:16:36;;;;;;;16.33;9.17;;;;;;;;;;5113560;28;20411;-58
2020/12/04 13:19:11;;;;;;;11.60;9.10;;;;;;;;;;5115341;28;20024;-58
2020/12/04 13:22:01;;;;;;;12.27;9.50;;;;;;;;;;5098240;28;20024;-58
2020/12/04 13:27:45;;;;;;;12.73;9.10;;;;;;;;;;5073030;28;20147;-58
2020/12/04 13:33:39;;;;;;;15.52;10.65;;;;;;;;;;5062144;28;20056;-56
2020/12/04 13:36:34;;;;;;;13.50;8.70;;;;;;;;;;5051297;28;20486;-57
2020/12/04 13:39:03;;;;;;;12.53;9.33;;;;;;;;;;5073139;28;20083;-57
2020/12/04 13:42:03;;;;;;;10.17;8.77;;;;;;;;;;5072396;28;20496;-58
2020/12/04 13:45:07;;;;;;;12.10;9.13;;;;;;;;;;5072255;28;20029;-57
2020/12/04 13:47:39;;;;;;;14.17;9.17;;;;;;;;;;5055436;28;20037;-58
2020/12/04 13:57:10;;;;;;;;;;;;;;;;;;;;;
2020/12/04 13:59:51;;;;;;;12.63;8.93;;;;;;;;;;5023872;28;20446;-54
2020/12/04 14:05:33;;;;;;;11.73;9.23;;;;;;;;;;5074438;28;20450;-57
2020/12/04 14:08:40;;;;;;;12.23;9.03;;;;;;;;;;5074871;28;20028;-57
2020/12/04 14:11:09;;;;;;;13.37;9.07;;;;;;;;;;5073731;28;20032;-56
2020/12/04 14:13:50;;;;;;;12.03;8.50;;;;;;;;;;5074853;28;20024;-57
2020/12/04 14:16:29;;;;;;;;;;;;;;;;;;;;;
2020/12/04 14:19:07;;;;;;;10.67;8.40;;;;;;;;;;5074033;28;20290;-55
2020/12/04 14:22:02;;;;;;;10.30;7.43;;;;;;;;;;5073922;28;20035;-57
2020/12/04 14:24:30;;;;;;;21.50;10.10;;;;;;;;;;5087170;28;20063;-56
2020/12/04 14:27:05;;;;;;;11.57;9.30;;;;;;;;;;5074100;28;20032;-57
2020/12/04 14:29:51;;;;;;;10.10;7.60;;;;;;;;;;5073287;28;20032;-55
2020/12/04 14:32:42;;;;;;;13.17;9.40;;;;;;;;;;5073200;28;20025;-56
2020/12/04 14:35:23;;;;;;;10.48;7.43;;;;;;;;;;5088449;28;20126;-54
2020/12/04 14:38:01;;;;;;;9.95;8.30;;;;;;;;;;5114558;28;20087;-55
2020/12/04 14:40:45;;;;;;;11.20;8.70;;;;;;;;;;5095972;28;20024;-57
2020/12/04 14:46:18;;;;;;;13.40;9.93;;;;;;;;;;5114167;28;20119;-53
2020/12/04 14:48:50;;;;;;;8.97;8.07;;;;;;;;;;5095657;28;20024;-57
2020/12/04 14:51:37;;;;;;;10.50;8.03;;;;;;;;;;5114570;28;20050;-56
2020/12/04 14:54:06;;;;;;;14.07;10.50;;;;;;;;;;5113697;28;20032;-57
2020/12/04 14:57:11;;;;;;;;;;;;;;;;;;;;;
2020/12/04 15:00:05;;;;;;;15.00;8.57;;;;;;;;;;5113936;28;20027;-51
2020/12/04 15:02:46;;;;;;;12.33;9.50;;;;;;;;;;5114451;28;20028;-57
2020/12/04 15:08:21;;;;;;;9.10;8.20;;;;;;;;;;5113686;28;19998;-50
2020/12/04 15:10:59;;;;;;;12.43;9.67;;;;;;;;;;5048816;28;20027;-54
2020/12/04 15:13:55;;;;;;;18.13;10.43;;;;;;;;;;5114040;28;20036;-54
2020/12/04 15:19:43;;;;;;;12.53;9.50;;;;;;;;;;5114006;28;20035;-53
2020/12/04 15:22:16;;;;;;;12.20;8.90;;;;;;;;;;5116893;28;20015;-54
2020/12/04 15:25:05;;;;;;;;;;;;;;;;;;;;;
2020/12/04 15:28:04;;;;;;;9.50;8.17;;;;;;;;;;5118292;28;20476;-56
2020/12/04 15:30:33;;;;;;;10.60;8.33;;;;;;;;;;5015121;28;20030;-58
2020/12/04 15:33:21;;;;;;;12.37;8.67;;;;;;;;;;5014803;28;20533;-55
2020/12/04 15:36:08;;;;;;;14.43;9.30;;;;;;;;;;5098286;28;20118;-55
2020/12/04 15:38:48;;;;;;;13.13;8.77;;;;;;;;;;5118418;28;20141;-56
2020/12/04 15:41:38;;;;;;;11.50;9.02;;;;;;;;;;5099048;28;20483;-54
2020/12/04 15:44:19;;;;;;;10.63;9.15;;;;;;;;;;5099931;28;20074;-57
2020/12/04 15:47:27;;;;;;;11.93;9.18;;;;;;;;;;5117588;28;20365;-55
2020/12/04 15:50:20;;;;;;;12.37;9.47;;;;;;;;;;5118225;28;20031;-56
2020/12/04 15:53:06;;;;;;;12.97;8.70;;;;;;;;;;5117032;28;20106;-56
2020/12/04 15:55:41;;;;;;;14.90;9.00;;;;;;;;;;5116782;28;20039;-56
2020/12/04 15:58:16;;;;;;;12.27;9.93;;;;;;;;;;5117068;28;20063;-52
2020/12/04 16:00:53;;;;;;;10.70;9.43;;;;;;;;;;5117397;28;20313;-57
2020/12/04 16:03:55;;;;;;;;;;;;;;;;;;;;;
2020/12/04 16:06:37;;;;;;;11.60;9.73;;;;;;;;;;5116652;28;20024;-56
2020/12/04 16:09:18;;;;;;;14.17;8.53;;;;;;;;;;5097350;28;20024;-56
2020/12/04 16:11:54;;;;;;;;;;;;;;;;;;5099076;28;20024;-55
2020/12/04 16:14:49;;;;;;;12.53;9.10;;;;;;;;;;5115461;28;19907;-55
2020/12/04 16:17:15;;;;;;;10.37;8.47;;;;;;;;;;5117108;28;20031;-55
2020/12/04 16:20:09;;;;;;;13.23;10.13;;;;;;;;;;5117409;28;20028;-55
2020/12/04 16:22:41;;;;;;;13.50;10.97;;;;;;;;;;5116398;28;20091;-54
2020/12/04 16:25:25;;;;;;;14.70;9.97;;;;;;;;;;5116638;28;20520;-56
2020/12/04 16:28:06;;;;;;;14.37;11.37;;;;;;;;;;5117153;28;20398;-55
2020/12/04 16:30:38;;;;;;;13.17;9.10;;;;;;;;;;5117307;28;20027;-56
2020/12/04 16:33:10;;;;;;;13.43;10.00;;;;;;;;;;5097978;28;20040;-56
2020/12/04 16:36:04;;;;;;;14.77;11.33;;;;;;;;;;5098568;28;20035;-57
2020/12/04 16:38:40;;;;;;;17.93;11.00;;;;;;;;;;5115295;28;20115;-57
2020/12/04 16:41:15;;;;;;;16.17;10.07;;;;;;;;;;5116621;28;20084;-56
2020/12/04 16:43:57;;;;;;;11.97;10.07;;;;;;;;;;5098979;28;20019;-57
2020/12/04 16:49:27;;;;;;;14.27;10.03;;;;;;;;;;5115896;28;20042;-57
2020/12/04 16:57:51;;;;;;;12.47;9.50;;;;;;;;;;5086212;28;20031;-54
2020/12/04 17:03:37;;;;;;;15.00;11.03;;;;;;;;;;5104966;28;20024;-56
2020/12/04 17:06:07;;;;;;;14.10;10.53;;;;;;;;;;5097300;28;20472;-54
2020/12/04 17:08:36;;;;;;;16.13;11.33;;;;;;;;;;5098101;28;20095;-51
2020/12/04 17:11:26;;;;;;;15.60;10.70;;;;;;;;;;5115290;28;20020;-54
2020/12/04 17:14:10;;;;;;;13.70;10.67;;;;;;;;;;5098895;28;20077;-55
2020/12/04 17:16:53;;;;;;;17.23;10.83;;;;;;;;;;5095100;28;20365;-53
2020/12/04 17:22:15;;;;;;;13.37;10.20;;;;;;;;;;5096593;28;20117;-56
2020/12/04 17:24:43;;;;;;;12.03;10.80;;;;;;;;;;5115742;28;20084;-56
2020/12/04 17:27:24;;;;;;;16.67;12.17;;;;;;;;;;5115225;28;20031;-55
2020/12/04 17:29:58;;;;;;;16.03;13.13;;;;;;;;;;5080797;28;20406;-55
2020/12/04 17:32:54;;;;;;;16.73;13.37;;;;;;;;;;5097762;28;20365;-56
2020/12/04 17:35:38;;;;;;;14.87;12.47;;;;;;;;;;5112676;28;20048;-55
2020/12/04 17:38:13;;;;;;;15.70;12.27;;;;;;;;;;5113542;28;20473;-53
2020/12/04 17:41:09;;;;;;;;;;;;;;;;;;;;;
2020/12/04 17:43:40;;;;;;;20.40;13.77;;;;;;;;;;5102514;28;20031;-56
2020/12/04 17:46:26;;;;;;;;;;;;;;;;;;5114497;28;20038;-56
2020/12/04 17:49:14;;;;;;;18.57;11.47;;;;;;;;;;5096234;28;20402;-55
2020/12/04 17:52:00;;;;;;;16.70;13.50;;;;;;;;;;5097298;28;20024;-56
2020/12/04 17:54:34;;;;;;;21.07;14.90;;;;;;;;;;5071707;28;20039;-56
2020/12/04 18:00:04;;;;;;;18.80;14.35;;;;;;;;;;5114300;28;20036;-57
2020/12/04 18:02:55;;;;;;;19.27;13.67;;;;;;;;;;5115157;28;20477;-57
2020/12/04 18:05:24;;;;;;;;;;;;;;;;;;5115102;28;20059;-55
2020/12/04 18:11:39;;;;;;;14.50;12.67;;;;;;;;;;5052002;28;20036;-57
2020/12/04 18:14:15;;;;;;;15.33;11.63;;;;;;;;;;5033011;28;20060;-56
2020/12/04 18:19:29;;;;;;;15.67;12.90;;;;;;;;;;5114929;28;20050;-54
2020/12/04 18:22:18;;;;;;;;;;;;;;;;;;;;;
2020/12/04 18:25:11;;;;;;;;;;;;;;;;;;;;;
2020/12/04 18:27:47;;;;;;;16.97;13.37;;;;;;;;;;5114864;28;20026;-54
2020/12/04 18:30:22;;;;;;;16.40;12.37;;;;;;;;;;5096202;28;20551;-53
2020/12/04 18:33:10;;;;;;;18.60;11.97;;;;;;;;;;5094849;28;20032;-57
2020/12/04 18:35:46;;;;;;;19.60;11.67;;;;;;;;;;5096127;28;20036;-56
2020/12/04 18:38:42;;;;;;;14.63;11.47;;;;;;;;;;5078667;28;20203;-55
2020/12/04 18:44:16;;;;;;;18.87;12.03;;;;;;;;;;5073869;28;20162;-56
2020/12/04 18:46:46;;;;;;;21.13;13.90;;;;;;;;;;5073937;28;20041;-53
2020/12/04 18:49:34;;;;;;;;;;;;;;;;;;;;;
2020/12/04 18:55:15;;;;;;;13.33;11.07;;;;;;;;;;5074046;28;20040;-57
2020/12/04 18:58:07;;;;;;;18.53;13.47;;;;;;;;;;5077735;28;20024;-57
2020/12/04 19:00:58;;;;;;;18.57;13.17;;;;;;;;;;5077585;28;20043;-53
2020/12/04 19:06:35;;;;;;;23.80;15.27;;;;;;;;;;5058235;28;20115;-56
2020/12/04 19:09:34;;;;;;;22.37;13.00;;;;;;;;;;5077085;28;20383;-56
2020/12/04 19:15:18;;;;;;;18.70;13.30;;;;;;;;;;5040314;28;20124;-55
2020/12/04 19:21:01;;;;;;;16.73;12.87;;;;;;;;;;5077097;28;20535;-52
2020/12/04 19:23:49;;;;;;;;;;;;;;;;;;;;;
2020/12/04 19:26:58;;;;;;;19.70;13.17;;;;;;;;;;5076689;28;20389;-53
2020/12/04 19:32:48;;;;;;;23.77;14.70;;;;;;;;;;5014757;28;20038;-57
2020/12/04 19:35:40;;;;;;;28.40;14.93;;;;;;;;;;5015021;28;20038;-56
2020/12/04 19:38:34;;;;;;;;;;;;;;;;;;;;;
2020/12/04 19:41:04;;;;;;;19.23;12.73;;;;;;;;;;5035182;28;20025;-56
2020/12/04 19:43:42;;;;;;;24.17;14.60;;;;;;;;;;5033394;28;20026;-53
2020/12/04 19:46:16;;;;;;;20.47;16.03;;;;;;;;;;5002920;28;20041;-57
2020/12/04 19:48:46;;;;;;;27.90;17.23;;;;;;;;;;5018038;28;20545;-58
2020/12/04 19:51:33;;;;;;;19.27;14.87;;;;;;;;;;5117792;28;20414;-53
2020/12/04 19:54:08;;;;;;;23.97;15.17;;;;;;;;;;5117038;28;20411;-57
2020/12/04 20:00:00;;;;;;;17.05;14.32;;;;;;;;;;5054328;28;20040;-52
2020/12/04 20:02:39;;;;;;;18.47;13.03;;;;;;;;;;5037973;28;20032;-54
2020/12/04 20:05:20;;;;;;;20.47;14.70;;;;;;;;;;5077811;28;20369;-54
2020/12/04 20:08:17;;;;;;;25.27;16.73;;;;;;;;;;5092181;28;20504;-55
2020/12/04 20:10:48;;;;;;;23.83;15.03;;;;;;;;;;5108595;28;20122;-56
2020/12/04 20:13:42;;;;;;;20.88;15.70;;;;;;;;;;5116985;28;20016;-55
2020/12/04 20:16:20;;;;;;;20.60;14.60;;;;;;;;;;5117067;28;20023;-54
2020/12/04 20:19:02;;;;;;;23.53;16.33;;;;;;;;;;5117495;28;20028;-56
2020/12/04 20:21:49;;;;;;;23.70;15.93;;;;;;;;;;5098421;28;20016;-55
2020/12/04 20:24:19;;;;;;;17.60;14.43;;;;;;;;;;5116888;28;20478;-54